createdAt,value
2017-11-18T00:00:05.593Z,1.84
2017-11-18T00:01:20.283Z,1.79
2017-11-18T00:02:05.651Z,1.81
2017-11-18T00:03:05.632Z,1.86
2017-11-18T00:04:05.666Z,2.05
2017-11-18T00:05:05.699Z,2.05
2017-11-18T00:06:05.428Z,2.12
2017-11-18T00:07:05.453Z,2.02
2017-11-18T00:08:05.729Z,2.14
2017-11-18T00:09:05.725Z,2.09
2017-11-18T00:10:05.764Z,2.2
2017-11-18T00:11:05.771Z,2.21
2017-11-18T00:12:05.523Z,2.27
2017-11-18T00:13:05.833Z,2.28
2017-11-18T00:14:05.811Z,2.41
2017-11-18T00:15:05.568Z,2.49
2017-11-18T00:16:05.571Z,2.35
2017-11-18T00:17:20.547Z,2.45
2017-11-18T00:19:05.870Z,2.36
2017-11-18T00:20:05.904Z,2.53
2017-11-18T00:21:05.904Z,2.53
2017-11-18T00:22:05.920Z,2.46
2017-11-18T00:23:05.950Z,2.49
2017-11-18T00:24:06.063Z,2.49
2017-11-18T00:25:05.977Z,2.53
2017-11-18T00:26:05.714Z,2.53
2017-11-18T00:27:06.005Z,2.54
2017-11-18T00:28:05.996Z,2.53
2017-11-18T00:29:05.769Z,2.57
2017-11-18T00:30:06.039Z,2.54
2017-11-18T00:31:06.038Z,2.46
2017-11-18T00:32:05.788Z,2.49
2017-11-18T00:33:20.762Z,2.46
2017-11-18T00:34:06.074Z,2.53
2017-11-18T00:35:20.779Z,2.54
2017-11-18T00:36:06.124Z,2.54
2017-11-18T00:37:06.146Z,2.56
2017-11-18T00:38:06.148Z,2.57
2017-11-18T00:39:06.178Z,2.57
2017-11-18T00:40:20.848Z,2.57
2017-11-18T00:41:06.208Z,2.57
2017-11-18T00:42:06.214Z,2.66
2017-11-18T00:43:06.218Z,2.66
2017-11-18T00:44:06.250Z,2.71
2017-11-18T00:45:06.242Z,2.79
2017-11-18T00:46:20.937Z,2.74
2017-11-18T00:47:06.308Z,2.81
2017-11-18T00:48:06.052Z,2.74
2017-11-18T00:49:20.969Z,2.74
2017-11-18T00:50:06.322Z,2.75
2017-11-18T00:51:06.097Z,2.74
2017-11-18T00:52:06.380Z,2.81
2017-11-18T00:53:06.379Z,2.82
2017-11-18T00:54:06.379Z,2.96
2017-11-18T00:55:06.411Z,2.85
2017-11-18T00:56:06.148Z,2.92
2017-11-18T00:57:06.425Z,2.97
2017-11-18T00:58:06.441Z,2.95
2017-11-18T00:59:06.487Z,2.9
2017-11-18T01:00:06.485Z,2.89
2017-11-18T01:01:06.511Z,2.9
2017-11-18T01:02:06.509Z,3.02
2017-11-18T01:03:06.523Z,2.9
2017-11-18T01:04:06.540Z,2.93
2017-11-18T01:06:06.573Z,2.79
2017-11-18T01:07:06.583Z,2.84
2017-11-18T01:08:06.605Z,2.78
2017-11-18T01:09:06.603Z,2.81
2017-11-18T01:10:06.634Z,2.67
2017-11-18T01:11:06.389Z,2.69
2017-11-18T01:12:06.424Z,2.75
2017-11-18T01:13:06.651Z,2.78
2017-11-18T01:14:06.691Z,2.69
2017-11-18T01:15:06.694Z,2.67
2017-11-18T01:16:06.446Z,2.72
2017-11-18T01:17:06.458Z,2.56
2017-11-18T01:18:06.760Z,2.63
2017-11-18T01:19:06.756Z,2.6
2017-11-18T01:20:06.766Z,2.52
2017-11-18T01:21:21.445Z,2.56
2017-11-18T01:22:21.469Z,2.49
2017-11-18T01:23:06.822Z,2.53
2017-11-18T01:24:06.833Z,2.52
2017-11-18T01:25:06.857Z,2.53
2017-11-18T01:26:21.527Z,2.49
2017-11-18T01:28:06.904Z,2.57
2017-11-18T01:29:06.903Z,2.45
2017-11-18T01:30:06.907Z,2.57
2017-11-18T01:31:06.963Z,2.64
2017-11-18T01:32:06.966Z,2.63
2017-11-18T01:33:06.952Z,2.74
2017-11-18T01:34:06.987Z,2.67
2017-11-18T01:35:07.012Z,2.69
2017-11-18T01:36:21.669Z,2.53
2017-11-18T01:37:07.017Z,2.57
2017-11-18T01:38:07.046Z,2.72
2017-11-18T01:39:07.049Z,2.72
2017-11-18T01:42:07.112Z,2.72
2017-11-18T01:43:06.864Z,2.64
2017-11-18T01:44:07.121Z,2.67
2017-11-18T01:45:07.139Z,2.63
2017-11-18T01:46:07.166Z,2.53
2017-11-18T01:47:07.287Z,2.61
2017-11-18T01:48:21.947Z,2.59
2017-11-18T01:49:06.945Z,2.6
2017-11-18T01:50:07.233Z,2.59
2017-11-18T01:51:07.231Z,2.52
2017-11-18T01:52:07.250Z,2.48
2017-11-18T01:53:07.264Z,2.52
2017-11-18T01:54:07.263Z,2.42
2017-11-18T01:55:07.293Z,2.46
2017-11-18T01:56:07.030Z,2.53
2017-11-18T01:57:07.558Z,2.59
2017-11-18T01:58:07.333Z,2.57
2017-11-18T01:59:07.377Z,2.61
2017-11-18T02:00:07.101Z,2.53
2017-11-18T02:01:07.363Z,2.57
2017-11-18T02:02:07.391Z,2.6
2017-11-18T02:03:07.420Z,2.53
2017-11-18T02:04:22.072Z,2.45
2017-11-18T02:05:22.087Z,2.53
2017-11-18T02:06:07.461Z,2.49
2017-11-18T02:07:07.466Z,2.52
2017-11-18T02:08:22.140Z,2.43
2017-11-18T02:09:07.233Z,2.46
2017-11-18T02:10:07.513Z,2.34
2017-11-18T02:11:07.528Z,2.41
2017-11-18T02:12:07.557Z,2.36
2017-11-18T02:14:07.667Z,2.43
2017-11-18T02:15:07.613Z,2.31
2017-11-18T02:16:07.600Z,2.42
2017-11-18T02:17:07.629Z,2.3
2017-11-18T02:18:22.282Z,2.35
2017-11-18T02:19:07.656Z,2.36
2017-11-18T02:20:07.647Z,2.34
2017-11-18T02:21:07.691Z,2.28
2017-11-18T02:22:07.686Z,2.28
2017-11-18T02:23:07.703Z,2.3
2017-11-18T02:24:22.385Z,2.23
2017-11-18T02:25:07.473Z,2.25
2017-11-18T02:26:07.745Z,2.35
2017-11-18T02:27:07.750Z,2.3
2017-11-18T02:28:07.511Z,2.35
2017-11-18T02:29:07.539Z,2.31
2017-11-18T02:30:07.818Z,2.31
2017-11-18T02:32:07.558Z,2.31
2017-11-18T02:33:07.587Z,2.31
2017-11-18T02:34:07.865Z,2.38
2017-11-18T02:36:07.640Z,2.41
2017-11-18T02:37:07.922Z,2.42
2017-11-18T02:38:07.937Z,2.41
2017-11-18T02:39:07.949Z,2.35
2017-11-18T02:40:22.609Z,2.42
2017-11-18T02:41:07.977Z,2.45
2017-11-18T02:42:07.724Z,2.41
2017-11-18T02:43:08.029Z,2.42
2017-11-18T02:44:08.002Z,2.46
2017-11-18T02:45:08.045Z,2.38
2017-11-18T02:46:08.034Z,2.45
2017-11-18T02:48:08.066Z,2.28
2017-11-18T02:49:08.075Z,2.39
2017-11-18T02:50:08.115Z,2.35
2017-11-18T02:51:07.852Z,2.42
2017-11-18T02:52:22.774Z,2.49
2017-11-18T02:53:08.131Z,2.46
2017-11-18T02:54:07.888Z,2.42
2017-11-18T02:55:22.565Z,2.41
2017-11-18T02:56:22.837Z,2.43
2017-11-18T02:57:08.201Z,2.35
2017-11-18T02:58:08.207Z,2.43
2017-11-18T03:00:07.993Z,2.42
2017-11-18T03:01:08.254Z,2.39
2017-11-18T03:02:08.005Z,2.43
2017-11-18T03:03:08.289Z,2.38
2017-11-18T03:04:08.291Z,2.41
2017-11-18T03:05:08.046Z,2.35
2017-11-18T03:06:08.071Z,2.41
2017-11-18T03:07:08.341Z,2.35
2017-11-18T03:08:08.361Z,2.39
2017-11-18T03:09:08.361Z,2.35
2017-11-18T03:10:08.400Z,2.46
2017-11-18T03:12:08.154Z,2.49
2017-11-18T03:13:08.431Z,2.53
2017-11-18T03:14:08.436Z,2.52
2017-11-18T03:15:08.470Z,2.54
2017-11-18T03:16:23.129Z,2.56
2017-11-18T03:17:08.491Z,2.54
2017-11-18T03:18:08.504Z,2.54
2017-11-18T03:19:08.505Z,2.57
2017-11-18T03:20:08.536Z,2.59
2017-11-18T03:21:08.574Z,2.46
2017-11-18T03:22:08.286Z,2.53
2017-11-18T03:23:08.575Z,2.61
2017-11-18T03:24:08.574Z,2.46
2017-11-18T03:25:08.628Z,2.57
2017-11-18T03:27:08.633Z,2.52
2017-11-18T03:28:08.658Z,2.52
2017-11-18T03:29:08.652Z,2.46
2017-11-18T03:30:08.675Z,2.52
2017-11-18T03:31:08.697Z,2.54
2017-11-18T03:32:08.714Z,2.56
2017-11-18T03:33:08.729Z,2.66
2017-11-18T03:34:08.742Z,2.57
2017-11-18T03:35:08.735Z,2.54
2017-11-18T03:36:08.767Z,2.66
2017-11-18T03:37:08.792Z,2.71
2017-11-18T03:38:08.780Z,2.82
2017-11-18T03:39:08.817Z,2.74
2017-11-18T03:40:08.813Z,2.81
2017-11-18T03:41:08.844Z,2.78
2017-11-18T03:42:08.599Z,2.75
2017-11-18T03:43:23.533Z,2.71
2017-11-18T03:44:08.884Z,2.89
2017-11-18T03:45:08.883Z,2.85
2017-11-18T03:46:08.925Z,2.81
2017-11-18T03:47:08.941Z,2.87
2017-11-18T03:48:08.949Z,2.97
2017-11-18T03:49:08.970Z,2.95
2017-11-18T03:50:08.979Z,2.99
2017-11-18T03:51:08.985Z,3
2017-11-18T03:52:08.992Z,2.93
2017-11-18T03:53:09.006Z,2.97
2017-11-18T03:54:09.051Z,2.96
2017-11-18T03:55:09.035Z,2.97
2017-11-18T03:56:09.054Z,3.05
2017-11-18T03:57:09.059Z,3.05
2017-11-18T03:58:09.075Z,3.05
2017-11-18T03:59:23.767Z,3.05
2017-11-18T04:00:09.111Z,3.02
2017-11-18T04:01:08.869Z,3.17
2017-11-18T04:02:09.138Z,3.03
2017-11-18T04:03:09.161Z,3.15
2017-11-18T04:04:09.180Z,3.11
2017-11-18T04:06:08.940Z,3.14
2017-11-18T04:07:09.226Z,3.13
2017-11-18T04:08:08.973Z,3.13
2017-11-18T04:09:09.252Z,3.21
2017-11-18T04:10:08.988Z,3.17
2017-11-18T04:11:09.288Z,3.24
2017-11-18T04:12:09.288Z,3.33
2017-11-18T04:13:09.040Z,3.57
2017-11-18T04:14:09.333Z,3.51
2017-11-18T04:15:23.996Z,3.6
2017-11-18T04:16:09.367Z,3.57
2017-11-18T04:17:09.362Z,3.58
2017-11-18T04:18:09.108Z,3.57
2017-11-18T04:19:09.119Z,3.51
2017-11-18T04:21:09.195Z,3.48
2017-11-18T04:22:09.177Z,3.55
2017-11-18T04:24:09.203Z,3.65
2017-11-18T04:25:09.481Z,3.6
2017-11-18T04:26:09.495Z,3.61
2017-11-18T04:27:09.508Z,3.65
2017-11-18T04:28:24.182Z,3.57
2017-11-18T04:29:09.609Z,3.55
2017-11-18T04:31:24.232Z,3.65
2017-11-18T04:32:09.609Z,3.57
2017-11-18T04:33:09.610Z,3.6
2017-11-18T04:34:09.361Z,3.58
2017-11-18T04:35:24.289Z,3.58
2017-11-18T04:37:09.678Z,3.6
2017-11-18T04:39:09.424Z,3.61
2017-11-18T04:40:09.710Z,3.61
2017-11-18T04:41:09.725Z,3.55
2017-11-18T04:42:09.747Z,3.79
2017-11-18T04:43:09.748Z,3.72
2017-11-18T04:44:09.784Z,3.78
2017-11-18T04:45:09.787Z,3.73
2017-11-18T04:46:24.458Z,3.75
2017-11-18T04:47:09.814Z,3.87
2017-11-18T04:48:09.821Z,3.8
2017-11-18T04:49:09.843Z,3.88
2017-11-18T04:50:09.863Z,3.76
2017-11-18T04:51:09.893Z,3.72
2017-11-18T04:52:09.904Z,3.83
2017-11-18T04:53:09.909Z,3.75
2017-11-18T04:54:09.660Z,3.88
2017-11-18T04:55:09.936Z,3.86
2017-11-18T04:56:24.598Z,3.79
2017-11-18T04:57:09.718Z,3.93
2017-11-18T04:58:10.000Z,3.86
2017-11-18T04:59:09.991Z,3.76
2017-11-18T05:00:10.020Z,3.78
2017-11-18T05:01:10.030Z,3.88
2017-11-18T05:02:10.044Z,3.84
2017-11-18T05:03:09.788Z,3.84
2017-11-18T05:04:10.072Z,3.86
2017-11-18T05:05:24.734Z,3.78
2017-11-18T05:06:10.107Z,3.9
2017-11-18T05:07:10.109Z,3.86
2017-11-18T05:08:10.128Z,3.86
2017-11-18T05:09:10.141Z,3.87
2017-11-18T05:11:10.190Z,3.86
2017-11-18T05:12:09.918Z,3.8
2017-11-18T05:13:24.872Z,3.79
2017-11-18T05:14:09.945Z,3.79
2017-11-18T05:15:24.883Z,3.83
2017-11-18T05:16:10.256Z,3.8
2017-11-18T05:17:10.275Z,3.83
2017-11-18T05:18:24.929Z,3.83
2017-11-18T05:19:10.292Z,3.8
2017-11-18T05:20:10.319Z,3.87
2017-11-18T05:21:10.048Z,3.91
2017-11-18T05:22:10.077Z,3.91
2017-11-18T05:23:10.360Z,3.93
2017-11-18T05:24:10.418Z,4.05
2017-11-18T05:25:10.395Z,3.94
2017-11-18T05:28:09.907Z,4.05
2017-11-18T05:29:10.466Z,4.16
2017-11-18T05:30:10.464Z,4.04
2017-11-18T05:31:10.466Z,4.09
2017-11-18T05:32:10.489Z,4.04
2017-11-18T05:33:10.497Z,4.12
2017-11-18T05:34:25.193Z,4.05
2017-11-18T05:35:10.539Z,4.09
2017-11-18T05:36:10.545Z,4.14
2017-11-18T05:37:25.228Z,4
2017-11-18T05:38:10.584Z,4.14
2017-11-18T05:40:10.342Z,4.18
2017-11-18T05:41:10.628Z,4.18
2017-11-18T05:42:10.661Z,4
2017-11-18T05:43:10.657Z,4.05
2017-11-18T05:44:10.681Z,4.18
2017-11-18T05:45:10.698Z,4.18
2017-11-18T05:46:10.684Z,4.22
2017-11-18T05:47:10.730Z,4.2
2017-11-18T05:48:10.713Z,4.06
2017-11-18T05:49:10.741Z,4.18
2017-11-18T05:50:25.429Z,4.2
2017-11-18T05:51:10.813Z,4.18
2017-11-18T05:53:10.805Z,4.22
2017-11-18T05:55:10.842Z,4.34
2017-11-18T05:56:25.520Z,4.42
2017-11-18T05:57:25.527Z,4.47
2017-11-18T05:58:10.898Z,4.34
2017-11-18T05:59:10.899Z,4.36
2017-11-18T06:00:10.925Z,4.34
2017-11-18T06:01:10.937Z,4.3
2017-11-18T06:02:10.957Z,4.34
2017-11-18T06:03:10.968Z,4.37
2017-11-18T06:04:10.720Z,4.34
2017-11-18T06:05:11.000Z,4.34
2017-11-18T06:06:25.673Z,4.33
2017-11-18T06:07:11.042Z,4.36
2017-11-18T06:08:11.059Z,4.4
2017-11-18T06:09:11.039Z,4.4
2017-11-18T06:10:11.071Z,4.47
2017-11-18T06:11:11.107Z,4.37
2017-11-18T06:12:11.107Z,4.4
2017-11-18T06:13:11.134Z,4.34
2017-11-18T06:14:10.880Z,4.4
2017-11-18T06:15:11.138Z,4.37
2017-11-18T06:16:11.166Z,4.34
2017-11-18T06:17:11.186Z,4.33
2017-11-18T06:18:11.212Z,4.33
2017-11-18T06:19:11.208Z,4.37
2017-11-18T06:20:11.236Z,4.36
2017-11-18T06:21:25.889Z,4.33
2017-11-18T06:22:25.902Z,4.4
2017-11-18T06:23:11.282Z,4.48
2017-11-18T06:24:11.288Z,4.45
2017-11-18T06:25:11.302Z,4.45
2017-11-18T06:26:11.334Z,4.44
2017-11-18T06:27:11.328Z,4.26
2017-11-18T06:28:11.336Z,4.34
2017-11-18T06:29:11.381Z,4.37
2017-11-18T06:30:11.378Z,4.24
2017-11-18T06:31:11.409Z,4.26
2017-11-18T06:32:10.886Z,4.22
2017-11-18T06:33:11.442Z,4.27
2017-11-18T06:34:11.426Z,4.4
2017-11-18T06:35:11.447Z,4.29
2017-11-18T06:36:11.454Z,4.29
2017-11-18T06:37:11.473Z,4.4
2017-11-18T06:38:11.522Z,4.32
2017-11-18T06:39:11.511Z,4.37
2017-11-18T06:40:11.553Z,4.47
2017-11-18T06:41:11.538Z,4.45
2017-11-18T06:42:26.233Z,4.36
2017-11-18T06:43:11.585Z,4.4
2017-11-18T06:44:11.336Z,4.42
2017-11-18T06:45:11.607Z,4.34
2017-11-18T06:46:11.654Z,4.33
2017-11-18T06:47:11.647Z,4.3
2017-11-18T06:48:11.680Z,4.24
2017-11-18T06:49:11.683Z,4.26
2017-11-18T06:50:11.719Z,4.11
2017-11-18T06:51:11.809Z,4.26
2017-11-18T06:52:11.691Z,4.27
2017-11-18T06:53:26.380Z,4.22
2017-11-18T06:54:11.770Z,4.23
2017-11-18T06:55:11.771Z,4.24
2017-11-18T06:56:11.517Z,4.23
2017-11-18T06:57:11.768Z,4.14
2017-11-18T06:58:11.823Z,4.14
2017-11-18T07:00:11.840Z,4.29
2017-11-18T07:01:11.600Z,4.16
2017-11-18T07:02:11.877Z,4.06
2017-11-18T07:03:26.539Z,4.08
2017-11-18T07:04:26.551Z,3.98
2017-11-18T07:05:11.922Z,4
2017-11-18T07:07:11.938Z,4.06
2017-11-18T07:08:26.633Z,4.04
2017-11-18T07:09:26.735Z,3.86
2017-11-18T07:10:12.011Z,3.83
2017-11-18T07:11:12.106Z,3.83
2017-11-18T07:12:11.756Z,3.86
2017-11-18T07:13:12.059Z,3.87
2017-11-18T07:14:12.056Z,3.84
2017-11-18T07:16:11.830Z,3.83
2017-11-18T07:17:11.839Z,3.88
2017-11-18T07:18:12.123Z,3.8
2017-11-18T07:19:26.797Z,3.87
2017-11-18T07:20:12.156Z,3.84
2017-11-18T07:21:26.817Z,3.88
2017-11-18T07:22:12.158Z,3.97
2017-11-18T07:23:12.195Z,3.98
2017-11-18T07:24:12.211Z,3.9
2017-11-18T07:27:12.263Z,3.88
2017-11-18T07:28:12.268Z,3.87
2017-11-18T07:29:12.291Z,3.88
2017-11-18T07:30:12.312Z,3.98
2017-11-18T07:31:12.307Z,4.06
2017-11-18T07:32:12.336Z,4.04
2017-11-18T07:33:12.363Z,4.05
2017-11-18T07:34:12.093Z,4.09
2017-11-18T07:35:12.382Z,4.29
2017-11-18T07:37:12.420Z,4.51
2017-11-18T07:38:12.427Z,4.48
2017-11-18T07:39:12.421Z,4.51
2017-11-18T07:40:12.466Z,4.69
2017-11-18T07:41:27.131Z,4.77
2017-11-18T07:42:12.469Z,4.78
2017-11-18T07:43:12.491Z,4.77
2017-11-18T07:44:12.523Z,4.75
2017-11-18T07:45:12.549Z,4.85
2017-11-18T07:46:12.550Z,4.84
2017-11-18T07:47:12.568Z,4.97
2017-11-18T07:48:12.580Z,4.94
2017-11-18T07:49:12.655Z,4.99
2017-11-18T07:50:12.624Z,4.88
2017-11-18T07:51:12.612Z,4.96
2017-11-18T07:52:27.331Z,5.04
2017-11-18T07:53:27.323Z,4.97
2017-11-18T07:54:12.675Z,4.97
2017-11-18T07:55:12.442Z,5.03
2017-11-18T07:56:27.379Z,5.17
2017-11-18T07:57:12.737Z,5.22
2017-11-18T07:58:12.748Z,5.18
2017-11-18T07:59:12.749Z,5.31
2017-11-18T08:00:12.785Z,5.33
2017-11-18T08:01:12.788Z,5.31
2017-11-18T08:02:12.818Z,5.38
2017-11-18T08:03:12.559Z,5.38
2017-11-18T08:04:12.822Z,5.43
2017-11-18T08:05:12.863Z,5.4
2017-11-18T08:06:12.851Z,5.43
2017-11-18T08:07:12.894Z,5.4
2017-11-18T08:08:12.898Z,5.4
2017-11-18T08:09:12.919Z,5.4
2017-11-18T08:10:12.933Z,5.43
2017-11-18T08:11:12.964Z,5.4
2017-11-18T08:12:27.357Z,5.56
2017-11-18T08:13:13.002Z,5.57
2017-11-18T08:14:13.008Z,5.49
2017-11-18T08:15:13.020Z,5.51
2017-11-18T08:16:13.013Z,5.54
2017-11-18T08:17:13.049Z,5.65
2017-11-18T08:18:12.811Z,5.72
2017-11-18T08:19:13.075Z,5.67
2017-11-18T08:20:13.079Z,5.75
2017-11-18T08:21:13.112Z,5.63
2017-11-18T08:22:13.114Z,5.61
2017-11-18T08:23:13.148Z,5.72
2017-11-18T08:24:13.167Z,5.56
2017-11-18T08:25:13.170Z,5.61
2017-11-18T08:26:13.187Z,5.72
2017-11-18T08:27:13.314Z,5.74
2017-11-18T08:28:27.899Z,5.67
2017-11-18T08:29:27.890Z,5.63
2017-11-18T08:30:13.267Z,5.72
2017-11-18T08:31:13.271Z,5.75
2017-11-18T08:32:13.026Z,5.86
2017-11-18T08:34:13.311Z,5.74
2017-11-18T08:36:13.368Z,5.86
2017-11-18T08:37:13.364Z,5.85
2017-11-18T08:38:13.399Z,5.9
2017-11-18T08:39:13.140Z,6.01
2017-11-18T08:40:13.163Z,5.9
2017-11-18T08:41:28.090Z,5.91
2017-11-18T08:42:13.437Z,5.82
2017-11-18T08:43:13.485Z,5.83
2017-11-18T08:44:27.870Z,6
2017-11-18T08:45:13.503Z,5.97
2017-11-18T08:46:13.555Z,6.01
2017-11-18T08:47:13.275Z,6.01
2017-11-18T08:48:13.547Z,6
2017-11-18T08:49:13.299Z,6.08
2017-11-18T08:50:13.559Z,6.03
2017-11-18T08:51:13.591Z,6.06
2017-11-18T08:52:13.600Z,6.18
2017-11-18T08:53:28.282Z,6.08
2017-11-18T08:54:13.664Z,6.09
2017-11-18T08:55:13.675Z,6
2017-11-18T08:56:28.077Z,6.03
2017-11-18T08:57:13.700Z,6.09
2017-11-18T08:58:28.373Z,6.12
2017-11-18T08:59:13.728Z,6.06
2017-11-18T09:00:28.389Z,6.04
2017-11-18T09:01:13.342Z,6.14
2017-11-18T09:02:13.781Z,6.14
2017-11-18T09:03:13.803Z,6.06
2017-11-18T09:04:13.795Z,6.09
2017-11-18T09:05:13.556Z,6.11
2017-11-18T09:06:13.848Z,6.12
2017-11-18T09:07:13.864Z,6.27
2017-11-18T09:08:13.867Z,6.15
2017-11-18T09:09:13.990Z,6.09
2017-11-18T09:10:13.889Z,6.04
2017-11-18T09:11:13.990Z,6.11
2017-11-18T09:12:13.928Z,6.18
2017-11-18T09:13:13.965Z,6.19
2017-11-18T09:14:28.643Z,6.3
2017-11-18T09:15:14.004Z,6.17
2017-11-18T09:16:28.655Z,6.22
2017-11-18T09:17:28.680Z,6.17
2017-11-18T09:18:14.046Z,6.28
2017-11-18T09:19:14.074Z,6.22
2017-11-18T09:20:28.474Z,6.18
2017-11-18T09:21:13.828Z,6.21
2017-11-18T09:22:14.202Z,6.14
2017-11-18T09:23:14.119Z,6.18
2017-11-18T09:24:14.132Z,6.21
2017-11-18T09:25:14.151Z,6.31
2017-11-18T09:26:14.144Z,6.25
2017-11-18T09:27:14.191Z,6.31
2017-11-18T09:28:14.190Z,6.34
2017-11-18T09:29:14.224Z,6.25
2017-11-18T09:30:14.226Z,6.28
2017-11-18T09:31:28.657Z,6.33
2017-11-18T09:32:14.258Z,6.38
2017-11-18T09:33:14.303Z,6.31
2017-11-18T09:34:14.290Z,6.27
2017-11-18T09:35:14.053Z,6.25
2017-11-18T09:36:14.326Z,6.3
2017-11-18T09:37:14.359Z,6.36
2017-11-18T09:38:14.110Z,6.3
2017-11-18T09:40:14.404Z,6.33
2017-11-18T09:41:29.073Z,6.25
2017-11-18T09:42:14.441Z,6.3
2017-11-18T09:43:14.471Z,6.21
2017-11-18T09:44:14.203Z,6.21
2017-11-18T09:45:14.504Z,6.34
2017-11-18T09:46:14.494Z,6.4
2017-11-18T09:47:14.521Z,6.44
2017-11-18T09:49:14.574Z,6.3
2017-11-18T09:50:14.564Z,6.4
2017-11-18T09:51:14.593Z,6.38
2017-11-18T09:52:14.317Z,6.49
2017-11-18T09:53:14.607Z,6.44
2017-11-18T09:54:14.652Z,6.43
2017-11-18T09:55:14.759Z,6.4
2017-11-18T09:56:14.413Z,6.46
2017-11-18T09:57:14.695Z,6.52
2017-11-18T09:58:29.346Z,6.49
2017-11-18T09:59:14.453Z,6.41
2017-11-18T10:00:14.705Z,6.41
2017-11-18T10:01:14.753Z,6.41
2017-11-18T10:02:14.769Z,6.44
2017-11-18T10:03:29.436Z,6.52
2017-11-18T10:04:14.799Z,6.54
2017-11-18T10:05:14.822Z,6.55
2017-11-18T10:06:14.813Z,6.58
2017-11-18T10:07:14.594Z,6.61
2017-11-18T10:08:14.614Z,6.61
2017-11-18T10:09:14.879Z,6.54
2017-11-18T10:10:14.909Z,6.59
2017-11-18T10:11:14.919Z,6.56
2017-11-18T10:12:14.937Z,6.56
2017-11-18T10:13:29.616Z,6.54
2017-11-18T10:14:14.970Z,6.51
2017-11-18T10:15:14.995Z,6.55
2017-11-18T10:17:15.009Z,6.61
2017-11-18T10:18:15.022Z,6.61
2017-11-18T10:19:29.716Z,6.67
2017-11-18T10:20:15.062Z,6.59
2017-11-18T10:22:15.093Z,6.62
2017-11-18T10:23:15.115Z,6.59
2017-11-18T10:24:15.141Z,6.69
2017-11-18T10:25:15.142Z,6.59
2017-11-18T10:26:15.172Z,6.61
2017-11-18T10:27:15.181Z,6.71
2017-11-18T10:28:15.185Z,6.73
2017-11-18T10:29:15.230Z,6.73
2017-11-18T10:30:15.219Z,6.74
2017-11-18T10:31:15.289Z,6.74
2017-11-18T10:32:14.998Z,6.74
2017-11-18T10:33:15.294Z,6.73
2017-11-18T10:34:15.299Z,6.71
2017-11-18T10:35:29.987Z,6.73
2017-11-18T10:36:15.324Z,6.73
2017-11-18T10:37:15.358Z,6.71
2017-11-18T10:38:15.458Z,6.67
2017-11-18T10:39:15.385Z,6.69
2017-11-18T10:40:15.393Z,6.8
2017-11-18T10:41:15.420Z,6.81
2017-11-18T10:42:15.445Z,6.79
2017-11-18T10:43:15.447Z,6.74
2017-11-18T10:44:15.206Z,6.71
2017-11-18T10:45:15.491Z,6.71
2017-11-18T10:46:15.502Z,6.73
2017-11-18T10:47:15.524Z,6.8
2017-11-18T10:48:15.536Z,6.73
2017-11-18T10:49:15.558Z,6.74
2017-11-18T10:50:15.612Z,6.81
2017-11-18T10:51:30.241Z,6.81
2017-11-18T10:52:15.582Z,6.77
2017-11-18T10:53:15.622Z,6.81
2017-11-18T10:54:15.609Z,6.79
2017-11-18T10:55:30.314Z,6.77
2017-11-18T10:56:15.673Z,6.8
2017-11-18T10:57:15.673Z,6.73
2017-11-18T11:00:15.749Z,6.71
2017-11-18T11:01:15.847Z,6.76
2017-11-18T11:02:30.433Z,6.74
2017-11-18T11:04:15.803Z,6.77
2017-11-18T11:05:15.819Z,6.76
2017-11-18T11:06:30.501Z,6.73
2017-11-18T11:07:15.857Z,6.7
2017-11-18T11:08:30.534Z,6.67
2017-11-18T11:09:15.619Z,6.71
2017-11-18T11:10:15.907Z,6.77
2017-11-18T11:11:15.657Z,6.64
2017-11-18T11:12:30.590Z,6.69
2017-11-18T11:13:15.950Z,6.71
2017-11-18T11:14:15.968Z,6.59
2017-11-18T11:16:16.033Z,6.74
2017-11-18T11:19:16.053Z,6.71
2017-11-18T11:20:16.069Z,6.76
2017-11-18T11:21:16.072Z,6.76
2017-11-18T11:22:16.122Z,6.76
2017-11-18T11:23:16.138Z,6.77
2017-11-18T11:24:16.118Z,6.71
2017-11-18T11:25:15.890Z,6.79
2017-11-18T11:26:16.172Z,6.73
2017-11-18T11:27:16.180Z,6.69
2017-11-18T11:28:30.605Z,6.71
2017-11-18T11:29:16.226Z,6.77
2017-11-18T11:30:30.891Z,6.87
2017-11-18T11:31:15.984Z,6.89
2017-11-18T11:32:16.281Z,6.91
2017-11-18T11:33:16.283Z,6.92
2017-11-18T11:34:16.332Z,6.94
2017-11-18T11:35:16.317Z,7.02
2017-11-18T11:36:16.328Z,6.94
2017-11-18T11:38:31.022Z,6.97
2017-11-18T11:39:16.389Z,6.97
2017-11-18T11:40:16.138Z,6.98
2017-11-18T11:41:16.424Z,6.97
2017-11-18T11:42:16.441Z,7.06
2017-11-18T11:43:16.449Z,7.03
2017-11-18T11:45:16.484Z,7.09
2017-11-18T11:46:16.507Z,7.03
2017-11-18T11:47:16.526Z,7.2
2017-11-18T11:48:16.553Z,7.09
2017-11-18T11:49:16.537Z,7.16
2017-11-18T11:50:16.572Z,7.24
2017-11-18T11:51:16.331Z,7.12
2017-11-18T11:52:16.603Z,7.27
2017-11-18T11:53:16.637Z,7.21
2017-11-18T11:54:31.303Z,7.09
2017-11-18T11:55:16.678Z,7.1
2017-11-18T11:56:16.666Z,7.06
2017-11-18T11:57:16.440Z,7.06
2017-11-18T11:58:16.707Z,7.09
2017-11-18T11:59:16.456Z,7.1
2017-11-18T12:00:16.740Z,7.16
2017-11-18T12:01:16.752Z,7.1
2017-11-18T12:02:16.788Z,7.15
2017-11-18T12:03:16.790Z,7.17
2017-11-18T12:04:16.811Z,7.24
2017-11-18T12:05:16.820Z,7.24
2017-11-18T12:06:16.951Z,7.24
2017-11-18T12:07:16.955Z,7.37
2017-11-18T12:08:16.876Z,7.39
2017-11-18T12:09:16.912Z,7.43
2017-11-18T12:11:16.941Z,7.52
2017-11-18T12:12:16.945Z,7.55
2017-11-18T12:13:16.972Z,7.5
2017-11-18T12:14:17.002Z,7.53
2017-11-18T12:15:17.002Z,7.5
2017-11-18T12:16:17.006Z,7.55
2017-11-18T12:17:31.688Z,7.46
2017-11-18T12:18:17.093Z,7.58
2017-11-18T12:19:17.077Z,7.53
2017-11-18T12:20:17.072Z,7.49
2017-11-18T12:21:31.507Z,7.57
2017-11-18T12:22:17.110Z,7.64
2017-11-18T12:23:17.146Z,7.55
2017-11-18T12:24:31.806Z,7.58
2017-11-18T12:25:17.174Z,7.64
2017-11-18T12:26:31.861Z,7.6
2017-11-18T12:27:17.200Z,7.64
2017-11-18T12:28:17.284Z,7.52
2017-11-18T12:29:17.244Z,7.71
2017-11-18T12:30:17.260Z,7.69
2017-11-18T12:31:17.288Z,7.58
2017-11-18T12:32:17.307Z,7.63
2017-11-18T12:33:17.320Z,7.55
2017-11-18T12:35:17.335Z,7.68
2017-11-18T12:36:17.354Z,7.75
2017-11-18T12:37:17.375Z,7.8
2017-11-18T12:38:17.386Z,7.82
2017-11-18T12:39:17.424Z,7.86
2017-11-18T12:40:17.439Z,7.93
2017-11-18T12:41:32.114Z,7.83
2017-11-18T12:43:17.507Z,7.87
2017-11-18T12:44:17.505Z,7.92
2017-11-18T12:46:17.543Z,7.64
2017-11-18T12:47:17.549Z,7.68
2017-11-18T12:48:17.319Z,7.69
2017-11-18T12:49:17.572Z,7.83
2017-11-18T12:50:17.622Z,7.79
2017-11-18T12:51:17.637Z,7.75
2017-11-18T12:52:17.643Z,7.72
2017-11-18T12:53:17.672Z,7.67
2017-11-18T12:54:17.413Z,7.57
2017-11-18T12:55:17.707Z,7.61
2017-11-18T12:56:17.730Z,7.58
2017-11-18T12:57:17.763Z,7.6
2017-11-18T12:58:17.480Z,7.67
2017-11-18T12:59:17.767Z,7.57
2017-11-18T13:00:17.522Z,7.55
2017-11-18T13:01:17.792Z,7.71
2017-11-18T13:02:17.825Z,7.57
2017-11-18T13:03:17.833Z,7.55
2017-11-18T13:04:17.845Z,7.52
2017-11-18T13:05:17.872Z,7.6
2017-11-18T13:06:17.886Z,7.5
2017-11-18T13:07:17.901Z,7.46
2017-11-18T13:08:17.927Z,7.45
2017-11-18T13:09:17.939Z,7.46
2017-11-18T13:11:17.976Z,7.49
2017-11-18T13:12:18.008Z,7.37
2017-11-18T13:13:32.651Z,7.39
2017-11-18T13:14:17.776Z,7.34
2017-11-18T13:15:18.057Z,7.37
2017-11-18T13:16:18.070Z,7.37
2017-11-18T13:17:18.082Z,7.37
2017-11-18T13:18:18.092Z,7.4
2017-11-18T13:19:18.115Z,7.37
2017-11-18T13:20:18.125Z,7.35
2017-11-18T13:21:18.150Z,7.35
2017-11-18T13:22:18.179Z,7.39
2017-11-18T13:23:18.174Z,7.4
2017-11-18T13:24:17.927Z,7.37
2017-11-18T13:25:18.211Z,7.48
2017-11-18T13:26:18.236Z,7.43
2017-11-18T13:27:18.266Z,7.35
2017-11-18T13:28:18.268Z,7.37
2017-11-18T13:29:32.673Z,7.4
2017-11-18T13:30:18.299Z,7.48
2017-11-18T13:31:18.322Z,7.4
2017-11-18T13:32:18.354Z,7.4
2017-11-18T13:33:18.098Z,7.46
2017-11-18T13:34:18.382Z,7.39
2017-11-18T13:35:18.397Z,7.39
2017-11-18T13:36:18.146Z,7.39
2017-11-18T13:37:18.420Z,7.4
2017-11-18T13:38:18.443Z,7.45
2017-11-18T13:39:18.476Z,7.34
2017-11-18T13:40:18.453Z,7.48
2017-11-18T13:41:18.516Z,7.43
2017-11-18T13:42:18.512Z,7.49
2017-11-18T13:43:18.511Z,7.55
2017-11-18T13:44:18.553Z,7.48
2017-11-18T13:45:33.217Z,7.4
2017-11-18T13:46:33.240Z,7.43
2017-11-18T13:47:18.586Z,7.48
2017-11-18T13:48:18.650Z,7.48
2017-11-18T13:49:18.638Z,7.49
2017-11-18T13:50:18.648Z,7.5
2017-11-18T13:51:18.662Z,7.57
2017-11-18T13:52:18.696Z,7.45
2017-11-18T13:53:18.706Z,7.49
2017-11-18T13:54:18.707Z,7.5
2017-11-18T13:55:18.734Z,7.43
2017-11-18T13:56:18.757Z,7.35
2017-11-18T13:57:18.784Z,7.35
2017-11-18T13:58:18.786Z,7.35
2017-11-18T13:59:18.815Z,7.34
2017-11-18T14:01:33.506Z,7.28
2017-11-18T14:02:18.867Z,7.24
2017-11-18T14:03:18.893Z,7.32
2017-11-18T14:05:18.905Z,7.39
2017-11-18T14:06:18.949Z,7.24
2017-11-18T14:07:18.947Z,7.24
2017-11-18T14:08:33.616Z,7.28
2017-11-18T14:10:18.985Z,7.39
2017-11-18T14:11:19.037Z,7.3
2017-11-18T14:12:19.035Z,7.39
2017-11-18T14:13:33.696Z,7.25